createdAt,value
2022-12-19T00:01:16.521Z,1.60
2022-12-19T00:03:47.843Z,1.90
2022-12-19T00:06:15.863Z,1.90
2022-12-19T00:08:43.826Z,1.80
2022-12-19T00:11:12.451Z,1.70
2022-12-19T00:13:41.311Z,1.70
2022-12-19T00:16:17.682Z,1.80
2022-12-19T00:18:47.371Z,1.60
2022-12-19T00:21:16.167Z,1.70
2022-12-19T00:23:43.435Z,1.80
2022-12-19T00:26:22.420Z,1.90
2022-12-19T00:28:51.707Z,1.80
2022-12-19T00:31:19.680Z,1.80
2022-12-19T00:33:47.020Z,1.90
2022-12-19T00:36:16.885Z,1.70
2022-12-19T00:38:51.174Z,1.80
2022-12-19T00:41:20.987Z,1.70
2022-12-19T00:43:58.717Z,1.80
2022-12-19T00:46:25.895Z,1.90
2022-12-19T00:48:52.740Z,1.80
2022-12-19T00:51:22.414Z,1.80
2022-12-19T00:53:50.474Z,1.70
2022-12-19T00:56:20.646Z,1.70
2022-12-19T00:58:47.818Z,1.40
2022-12-19T01:01:18.136Z,1.40
2022-12-19T01:04:04.324Z,1.60
2022-12-19T01:06:31.989Z,1.80
2022-12-19T01:08:58.549Z,1.70
2022-12-19T01:11:44.082Z,1.70
2022-12-19T01:14:16.103Z,1.90
2022-12-19T01:16:45.849Z,1.80
2022-12-19T01:19:12.519Z,1.90
2022-12-19T01:21:39.091Z,2.00
2022-12-19T01:24:06.626Z,1.90
2022-12-19T01:26:33.213Z,1.90
2022-12-19T01:28:59.979Z,1.90
2022-12-19T01:31:26.671Z,1.90
2022-12-19T01:33:53.359Z,2.00
2022-12-19T01:36:21.316Z,1.90
2022-12-19T01:38:47.885Z,1.70
2022-12-19T01:41:14.705Z,2.00
2022-12-19T01:44:03.899Z,2.00
2022-12-19T01:46:36.538Z,2.10
2022-12-19T01:49:06.318Z,2.20
2022-12-19T01:51:44.838Z,2.00
2022-12-19T01:54:19.703Z,2.10
2022-12-19T01:56:50.555Z,2.20
2022-12-19T01:59:22.442Z,2.10
2022-12-19T02:01:55.117Z,2.20
2022-12-19T02:04:23.366Z,2.00
2022-12-19T02:06:51.744Z,2.10
2022-12-19T02:09:18.899Z,2.00
2022-12-19T02:11:48.281Z,2.30
2022-12-19T02:14:14.831Z,2.10
2022-12-19T02:17:20.843Z,2.00
2022-12-19T02:20:12.275Z,2.30
2022-12-19T02:22:57.691Z,2.40
2022-12-19T02:25:36.569Z,2.40
2022-12-19T02:28:57.731Z,2.40
2022-12-19T02:31:42.377Z,2.30
2022-12-19T02:34:44.197Z,2.30
2022-12-19T02:37:20.654Z,2.40
2022-12-19T02:39:57.090Z,2.40
2022-12-19T02:42:31.911Z,2.10
2022-12-19T02:45:04.224Z,2.30
2022-12-19T02:47:32.360Z,2.40
2022-12-19T02:49:58.998Z,2.10
2022-12-19T02:52:25.534Z,2.00
2022-12-19T02:54:56.141Z,2.20
2022-12-19T02:57:25.486Z,2.20
2022-12-19T03:00:06.846Z,2.40
2022-12-19T03:02:57.820Z,2.40
2022-12-19T03:05:31.921Z,2.30
2022-12-19T03:08:22.999Z,2.60
2022-12-19T03:11:09.788Z,2.30
2022-12-19T03:13:49.835Z,2.30
2022-12-19T03:16:16.476Z,2.40
2022-12-19T03:18:43.664Z,2.30
2022-12-19T03:21:36.990Z,2.40
2022-12-19T03:24:05.103Z,2.30
2022-12-19T03:26:36.440Z,2.40
2022-12-19T03:29:12.682Z,2.40
2022-12-19T03:31:39.859Z,2.40
2022-12-19T03:34:36.309Z,2.30
2022-12-19T03:37:05.874Z,2.20
2022-12-19T03:39:35.436Z,2.30
2022-12-19T03:42:23.583Z,2.30
2022-12-19T03:44:51.305Z,2.30
2022-12-19T03:47:40.238Z,2.20
2022-12-19T03:50:08.235Z,2.20
2022-12-19T03:53:06.661Z,2.20
2022-12-19T03:55:44.066Z,2.30
2022-12-19T03:58:15.000Z,2.30
2022-12-19T04:00:47.240Z,2.30
2022-12-19T04:03:17.041Z,2.30
2022-12-19T04:05:45.565Z,2.40
2022-12-19T04:08:12.621Z,2.60
2022-12-19T04:10:48.310Z,2.40
2022-12-19T04:13:20.069Z,2.40
2022-12-19T04:16:03.013Z,2.20
2022-12-19T04:18:31.301Z,2.30
2022-12-19T04:21:33.606Z,2.40
2022-12-19T04:24:09.535Z,2.30
2022-12-19T04:26:38.163Z,2.30
2022-12-19T04:29:07.914Z,2.30
2022-12-19T04:31:36.031Z,2.40
2022-12-19T04:34:02.696Z,2.40
2022-12-19T04:36:29.861Z,2.40
2022-12-19T04:38:56.990Z,2.40
2022-12-19T04:41:23.628Z,2.40
2022-12-19T04:43:50.234Z,2.40
2022-12-19T04:46:16.884Z,2.30
2022-12-19T04:48:43.465Z,2.40
2022-12-19T04:51:10.054Z,2.40
2022-12-19T04:53:36.739Z,2.60
2022-12-19T04:56:05.527Z,2.50
2022-12-19T04:58:32.983Z,2.50
2022-12-19T05:01:04.460Z,2.50
2022-12-19T05:03:31.122Z,2.60
2022-12-19T05:06:14.790Z,2.70
2022-12-19T05:08:42.982Z,2.50
2022-12-19T05:11:15.882Z,2.50
2022-12-19T05:13:45.922Z,2.40
2022-12-19T05:16:13.133Z,2.40
2022-12-19T05:18:40.315Z,2.30
2022-12-19T05:21:07.178Z,2.40
2022-12-19T05:23:34.157Z,2.50
2022-12-19T05:26:02.601Z,2.40
2022-12-19T05:28:29.242Z,2.40
2022-12-19T05:31:08.102Z,2.50
2022-12-19T05:33:35.544Z,2.50
2022-12-19T05:36:02.574Z,2.40
2022-12-19T05:38:29.569Z,2.40
2022-12-19T05:40:56.358Z,2.50
2022-12-19T05:43:23.458Z,2.50
2022-12-19T05:45:50.119Z,2.60
2022-12-19T05:48:16.759Z,2.60
2022-12-19T05:50:49.218Z,2.60
2022-12-19T05:53:19.674Z,2.70
2022-12-19T05:55:50.580Z,2.80
2022-12-19T05:58:20.015Z,2.80
2022-12-19T06:00:46.612Z,2.90
2022-12-19T06:03:13.224Z,2.90
2022-12-19T06:05:39.855Z,2.90
2022-12-19T06:08:06.572Z,2.80
2022-12-19T06:10:33.841Z,2.90
2022-12-19T06:13:00.398Z,2.90
2022-12-19T06:15:27.129Z,2.90
2022-12-19T06:17:54.623Z,3.00
2022-12-19T06:20:21.293Z,3.00
2022-12-19T06:22:47.854Z,3.00
2022-12-19T06:25:14.590Z,3.10
2022-12-19T06:27:41.213Z,3.10
2022-12-19T06:30:08.553Z,3.10
2022-12-19T06:32:38.086Z,3.20
2022-12-19T06:35:05.641Z,3.10
2022-12-19T06:37:32.214Z,3.20
2022-12-19T06:39:58.826Z,3.20
2022-12-19T06:42:25.532Z,3.20
2022-12-19T06:44:54.155Z,3.20
2022-12-19T06:47:22.443Z,3.30
2022-12-19T06:49:50.146Z,3.30
2022-12-19T06:52:17.631Z,3.30
2022-12-19T06:54:44.339Z,3.40
2022-12-19T06:57:11.098Z,3.40
2022-12-19T06:59:37.692Z,3.40
2022-12-19T07:02:28.361Z,3.40
2022-12-19T07:05:00.673Z,3.40
2022-12-19T07:07:28.788Z,3.40
2022-12-19T07:09:55.453Z,3.40
2022-12-19T07:12:22.043Z,3.40
2022-12-19T07:14:53.109Z,3.40
2022-12-19T07:17:21.602Z,3.30
2022-12-19T07:19:53.409Z,3.40
2022-12-19T07:22:20.462Z,3.40
2022-12-19T07:24:47.237Z,3.40
2022-12-19T07:27:13.992Z,3.40
2022-12-19T07:29:40.589Z,3.40
2022-12-19T07:32:07.218Z,3.50
2022-12-19T07:34:33.989Z,3.50
2022-12-19T07:37:00.533Z,3.50
2022-12-19T07:39:27.132Z,3.50
2022-12-19T07:41:53.762Z,3.50
2022-12-19T07:44:20.340Z,3.50
2022-12-19T07:46:47.799Z,3.50
2022-12-19T07:49:18.320Z,3.60
2022-12-19T07:51:48.971Z,3.60
2022-12-19T07:54:15.817Z,3.60
2022-12-19T07:56:42.442Z,3.60
2022-12-19T07:59:09.421Z,3.60
2022-12-19T08:01:36.086Z,3.70
2022-12-19T08:04:02.865Z,3.60
2022-12-19T08:06:29.470Z,3.60
2022-12-19T08:08:56.118Z,3.60
2022-12-19T08:11:27.511Z,3.60
2022-12-19T08:13:54.931Z,3.60
2022-12-19T08:16:22.444Z,3.70
2022-12-19T08:18:49.250Z,3.70
2022-12-19T08:21:15.912Z,3.70
2022-12-19T08:23:42.626Z,3.70
2022-12-19T08:26:15.273Z,3.80
2022-12-19T08:28:42.410Z,3.80
2022-12-19T08:31:13.114Z,3.80
2022-12-19T08:33:39.745Z,3.80
2022-12-19T08:36:08.484Z,3.90
2022-12-19T08:38:35.657Z,3.90
2022-12-19T08:41:02.657Z,4.00
2022-12-19T08:43:30.456Z,4.00
2022-12-19T08:45:57.547Z,4.10
2022-12-19T08:48:24.560Z,4.10
2022-12-19T08:50:56.742Z,4.10
2022-12-19T08:53:26.623Z,4.20
2022-12-19T08:56:02.644Z,4.20
2022-12-19T08:58:30.280Z,4.20
2022-12-19T09:01:05.224Z,4.20
2022-12-19T09:03:42.863Z,4.20
2022-12-19T09:06:20.360Z,4.20
2022-12-19T09:08:47.339Z,4.20
2022-12-19T09:11:16.306Z,4.20
2022-12-19T09:13:43.837Z,4.10
2022-12-19T09:16:17.371Z,4.20
2022-12-19T09:18:52.803Z,4.20
2022-12-19T09:21:22.252Z,4.20
2022-12-19T09:24:05.373Z,4.30
2022-12-19T09:26:34.730Z,4.30
2022-12-19T09:29:01.669Z,4.30
2022-12-19T09:31:29.342Z,4.30
2022-12-19T09:33:56.252Z,4.30
2022-12-19T09:36:25.030Z,4.30
2022-12-19T09:38:56.075Z,4.30
2022-12-19T09:41:37.726Z,4.30
2022-12-19T09:44:13.222Z,4.30
2022-12-19T09:47:01.251Z,4.40
2022-12-19T09:49:41.836Z,4.40
2022-12-19T09:52:36.588Z,4.40
2022-12-19T09:55:19.020Z,4.50
2022-12-19T09:58:01.625Z,4.50
2022-12-19T10:00:47.136Z,4.50
2022-12-19T10:03:22.766Z,4.50
2022-12-19T10:07:16.110Z,4.50
2022-12-19T10:09:08.661Z,4.60
2022-12-19T10:12:40.546Z,4.60
2022-12-19T10:14:58.670Z,4.70
2022-12-19T10:17:37.274Z,4.70
2022-12-19T10:20:32.220Z,4.80
2022-12-19T10:23:21.107Z,4.90
2022-12-19T10:25:53.542Z,4.90
2022-12-19T10:28:54.120Z,5.00
2022-12-19T10:31:41.235Z,5.00
2022-12-19T10:34:24.248Z,5.00
2022-12-19T10:37:26.833Z,5.10
2022-12-19T10:40:03.128Z,5.10
2022-12-19T10:42:53.422Z,5.10
2022-12-19T10:45:22.635Z,5.20
2022-12-19T10:47:57.563Z,5.20
2022-12-19T10:50:28.068Z,5.10
2022-12-19T10:53:07.250Z,5.20
2022-12-19T10:55:49.872Z,5.20
2022-12-19T10:58:26.988Z,5.10
2022-12-19T11:00:56.563Z,5.10
2022-12-19T11:03:23.561Z,5.20
2022-12-19T11:05:58.234Z,5.20
2022-12-19T11:08:36.564Z,5.10
2022-12-19T11:12:08.320Z,5.20
2022-12-19T11:18:00.457Z,5.20
2022-12-19T11:23:50.260Z,5.20
2022-12-19T11:29:31.566Z,5.20
2022-12-19T11:29:40.990Z,5.30
2022-12-19T11:30:39.205Z,5.30
2022-12-19T11:30:49.024Z,5.40
2022-12-19T11:34:05.472Z,5.40
2022-12-19T11:36:41.734Z,5.40
2022-12-19T11:39:33.527Z,5.40
2022-12-19T11:42:25.385Z,5.50
2022-12-19T11:45:11.141Z,5.50
2022-12-19T11:47:43.298Z,5.50
2022-12-19T11:50:23.632Z,5.50
2022-12-19T11:53:16.832Z,5.50
2022-12-19T11:55:56.985Z,5.50
2022-12-19T11:58:28.486Z,5.60
2022-12-19T12:01:44.598Z,5.60
2022-12-19T12:04:32.256Z,5.70
2022-12-19T12:07:00.419Z,5.60
2022-12-19T12:12:36.802Z,5.60
2022-12-19T12:19:46.081Z,5.70
2022-12-19T12:30:37.225Z,5.70
2022-12-19T12:31:17.154Z,5.90
2022-12-19T12:31:26.255Z,5.80
2022-12-19T12:31:26.509Z,5.70
2022-12-19T12:31:50.065Z,5.80
2022-12-19T12:35:42.528Z,5.80
2022-12-19T12:35:46.390Z,5.80
2022-12-19T12:40:38.941Z,5.90
2022-12-19T12:43:31.451Z,6.00
2022-12-19T12:45:59.362Z,6.10
2022-12-19T12:48:34.212Z,6.10
2022-12-19T12:51:02.025Z,6.10
2022-12-19T12:53:34.163Z,6.20
2022-12-19T12:56:03.299Z,6.20
2022-12-19T12:59:05.586Z,6.20
2022-12-19T13:01:38.761Z,6.20
2022-12-19T13:04:11.239Z,6.30
2022-12-19T13:07:03.770Z,6.30
2022-12-19T13:09:34.091Z,6.20
2022-12-19T13:12:43.800Z,6.30
2022-12-19T13:15:37.947Z,6.30
2022-12-19T13:18:34.533Z,6.30
2022-12-19T13:21:03.521Z,6.40
2022-12-19T13:23:30.063Z,6.50
2022-12-19T13:25:56.733Z,6.60
2022-12-19T13:28:23.295Z,6.50
2022-12-19T13:31:18.763Z,6.50
2022-12-19T13:33:55.822Z,6.50
2022-12-19T13:39:50.420Z,6.40
2022-12-19T13:40:18.482Z,6.40
2022-12-19T13:43:17.934Z,6.30
2022-12-19T13:45:58.815Z,6.30
2022-12-19T13:48:37.246Z,6.30
2022-12-19T13:51:06.654Z,6.30
2022-12-19T13:53:33.486Z,6.30
2022-12-19T13:56:11.010Z,6.30
2022-12-19T13:58:58.088Z,6.30
2022-12-19T14:01:29.259Z,6.20
2022-12-19T14:03:59.039Z,6.20
2022-12-19T14:06:46.445Z,6.20
2022-12-19T14:11:26.527Z,6.20
2022-12-19T14:13:57.267Z,6.10
2022-12-19T14:15:44.015Z,6.10
2022-12-19T14:18:42.198Z,6.10
2022-12-19T14:22:09.024Z,6.10
2022-12-19T14:24:24.790Z,6.10
2022-12-19T14:28:18.230Z,6.10
2022-12-19T14:30:30.317Z,6.00
2022-12-19T14:33:45.212Z,6.00
2022-12-19T14:36:10.923Z,6.00
2022-12-19T14:39:24.522Z,6.00
2022-12-19T14:41:47.854Z,5.90
2022-12-19T14:54:09.343Z,5.90
2022-12-19T14:54:11.820Z,6.00
2022-12-19T14:54:16.796Z,5.90
2022-12-19T14:54:22.085Z,5.90
2022-12-19T14:56:13.605Z,5.90
2022-12-19T14:58:54.462Z,5.90
2022-12-19T15:01:23.428Z,5.90
2022-12-19T15:04:50.653Z,5.90
2022-12-19T15:07:06.901Z,5.90
2022-12-19T15:11:08.382Z,6.00
2022-12-19T15:14:49.482Z,6.00
2022-12-19T15:15:56.195Z,5.90
2022-12-19T15:18:27.268Z,6.00
2022-12-19T15:20:56.860Z,6.00
2022-12-19T15:23:23.787Z,6.00
2022-12-19T15:26:08.313Z,6.00
2022-12-19T15:28:40.203Z,6.00
2022-12-19T15:31:26.135Z,5.90
2022-12-19T15:34:23.796Z,6.00
2022-12-19T15:36:39.683Z,6.00
2022-12-19T15:39:06.324Z,6.00
2022-12-19T15:41:32.956Z,6.00
2022-12-19T15:44:06.634Z,6.00
2022-12-19T15:46:33.710Z,6.10
2022-12-19T15:49:01.042Z,6.10
2022-12-19T15:51:27.852Z,6.10
2022-12-19T15:53:56.964Z,6.10
2022-12-19T15:56:35.033Z,6.10
2022-12-19T15:59:03.326Z,6.20
2022-12-19T16:01:32.689Z,6.20
2022-12-19T16:04:00.931Z,6.20
2022-12-19T16:06:27.961Z,6.30
2022-12-19T16:08:54.672Z,6.20
2022-12-19T16:11:24.388Z,6.20
2022-12-19T16:13:55.180Z,6.20
2022-12-19T16:16:22.150Z,6.20
2022-12-19T16:18:49.326Z,6.20
2022-12-19T16:21:33.312Z,6.30
2022-12-19T16:24:00.476Z,6.30
2022-12-19T16:26:35.934Z,6.30
2022-12-19T16:29:02.668Z,6.30
2022-12-19T16:31:29.502Z,6.30
2022-12-19T16:33:56.123Z,6.30
2022-12-19T16:36:22.833Z,6.30
2022-12-19T16:38:49.819Z,6.30
2022-12-19T16:41:23.406Z,6.30
2022-12-19T16:43:51.209Z,6.30
2022-12-19T16:46:20.755Z,6.40
2022-12-19T16:48:48.048Z,6.30
2022-12-19T16:51:20.187Z,6.40
2022-12-19T16:53:50.852Z,6.40
2022-12-19T16:56:33.675Z,6.30
2022-12-19T16:59:02.842Z,6.30
2022-12-19T17:01:29.667Z,6.40
2022-12-19T17:03:56.397Z,6.30
2022-12-19T17:06:23.483Z,6.40
2022-12-19T17:08:50.084Z,6.40
2022-12-19T17:11:21.190Z,6.50
2022-12-19T17:14:10.281Z,6.50
2022-12-19T17:16:37.551Z,6.50
2022-12-19T17:19:04.312Z,6.60
2022-12-19T17:21:30.920Z,6.60
2022-12-19T17:23:57.527Z,6.60
2022-12-19T17:26:24.178Z,6.60
2022-12-19T17:28:50.798Z,6.60
2022-12-19T17:31:26.690Z,6.70
2022-12-19T17:33:56.297Z,6.60
2022-12-19T17:36:32.645Z,6.60
2022-12-19T17:39:01.578Z,6.60
2022-12-19T17:41:28.241Z,6.60
2022-12-19T17:43:54.925Z,6.60
2022-12-19T17:46:23.979Z,6.60
2022-12-19T17:48:52.464Z,6.60
2022-12-19T17:51:21.274Z,6.60
2022-12-19T17:53:49.242Z,6.60
2022-12-19T17:56:18.126Z,6.60
2022-12-19T17:58:44.825Z,6.60
2022-12-19T18:01:23.055Z,6.60
2022-12-19T18:03:52.125Z,6.60
2022-12-19T18:06:18.982Z,6.60
2022-12-19T18:08:45.724Z,6.60
2022-12-19T18:11:21.450Z,6.60
2022-12-19T18:13:48.537Z,6.70
2022-12-19T18:16:18.693Z,6.70
2022-12-19T18:18:45.741Z,6.80
2022-12-19T18:21:17.853Z,6.90
2022-12-19T18:23:45.179Z,6.80
2022-12-19T18:26:12.284Z,6.70
2022-12-19T18:28:40.343Z,6.70
2022-12-19T18:31:17.940Z,6.70
2022-12-19T18:33:47.645Z,6.70
2022-12-19T18:36:27.261Z,6.70
2022-12-19T18:38:55.286Z,6.70
2022-12-19T18:41:23.164Z,6.70
2022-12-19T18:43:50.088Z,6.70
2022-12-19T18:46:24.339Z,6.80
2022-12-19T18:48:51.138Z,6.80
2022-12-19T18:51:21.276Z,6.80
2022-12-19T18:53:49.263Z,6.90
2022-12-19T18:56:16.246Z,6.90
2022-12-19T18:58:42.854Z,6.90
2022-12-19T19:01:18.330Z,6.90
2022-12-19T19:03:55.387Z,7.00
2022-12-19T19:06:27.971Z,7.00
2022-12-19T19:08:56.729Z,7.00
2022-12-19T19:11:24.860Z,7.00
2022-12-19T19:13:52.803Z,7.00
2022-12-19T19:16:26.066Z,7.00
2022-12-19T19:18:55.922Z,7.00
2022-12-19T19:21:32.306Z,7.10
2022-12-19T19:24:08.555Z,7.10
2022-12-19T19:26:35.597Z,7.10
2022-12-19T19:29:03.579Z,7.20
2022-12-19T19:31:35.957Z,7.20
2022-12-19T19:34:12.210Z,7.20
2022-12-19T19:36:42.631Z,7.30
2022-12-19T19:39:10.637Z,7.30
2022-12-19T19:41:37.350Z,7.30
2022-12-19T19:44:04.063Z,7.40
2022-12-19T19:46:30.759Z,7.40
2022-12-19T19:48:58.387Z,7.50
2022-12-19T19:51:25.157Z,7.80
2022-12-19T19:53:51.769Z,7.90
2022-12-19T19:56:18.323Z,8.00
2022-12-19T19:58:44.905Z,8.10
2022-12-19T20:01:13.385Z,8.40
2022-12-19T20:03:41.952Z,8.40
2022-12-19T20:06:10.218Z,8.60
2022-12-19T20:08:40.083Z,8.80
2022-12-19T20:11:08.654Z,8.70
2022-12-19T20:13:35.305Z,8.70
2022-12-19T20:16:15.582Z,8.90
2022-12-19T20:18:46.389Z,9.20
2022-12-19T20:21:13.952Z,9.20
2022-12-19T20:23:42.791Z,9.30
2022-12-19T20:26:11.438Z,9.40
2022-12-19T20:28:45.607Z,9.40
2022-12-19T20:31:14.836Z,9.60
2022-12-19T20:33:41.469Z,9.50
2022-12-19T20:36:10.124Z,9.50
2022-12-19T20:38:37.069Z,9.50
2022-12-19T20:41:04.874Z,9.40
2022-12-19T20:43:32.228Z,9.60
2022-12-19T20:46:03.693Z,9.70
2022-12-19T20:48:30.445Z,9.80
2022-12-19T20:51:01.306Z,9.80
2022-12-19T20:53:28.398Z,9.70
2022-12-19T20:55:58.291Z,9.70
2022-12-19T20:58:27.324Z,9.60
2022-12-19T21:01:02.387Z,9.60
2022-12-19T21:03:30.295Z,9.90
2022-12-19T21:05:57.927Z,9.80
2022-12-19T21:08:25.551Z,9.80
2022-12-19T21:10:53.242Z,9.70
2022-12-19T21:13:21.289Z,9.70
2022-12-19T21:15:55.684Z,9.90
2022-12-19T21:18:22.935Z,9.80
2022-12-19T21:20:53.398Z,9.80
2022-12-19T21:23:20.173Z,10.00
2022-12-19T21:25:46.852Z,9.90
2022-12-19T21:28:13.839Z,9.80
2022-12-19T21:30:40.711Z,9.70
2022-12-19T21:33:08.340Z,9.70
2022-12-19T21:35:36.006Z,9.80
2022-12-19T21:38:02.801Z,9.70
2022-12-19T21:40:29.399Z,9.70
2022-12-19T21:42:56.060Z,9.70
2022-12-19T21:45:22.808Z,9.70
2022-12-19T21:47:49.379Z,9.60
2022-12-19T21:50:15.978Z,9.70
2022-12-19T21:52:42.619Z,9.60
2022-12-19T21:55:09.791Z,9.70
2022-12-19T21:57:42.500Z,9.80
2022-12-19T22:00:11.547Z,9.80
2022-12-19T22:02:38.659Z,9.80
2022-12-19T22:05:06.557Z,10.00
2022-12-19T22:07:34.470Z,10.20
2022-12-19T22:10:01.178Z,10.30
2022-12-19T22:12:27.784Z,10.20
2022-12-19T22:14:54.409Z,10.30
2022-12-19T22:17:21.205Z,10.40
2022-12-19T22:19:47.793Z,10.30
2022-12-19T22:22:14.484Z,10.30
2022-12-19T22:24:41.082Z,10.30
2022-12-19T22:27:07.719Z,10.20
2022-12-19T22:29:36.434Z,10.20
2022-12-19T22:32:04.504Z,10.30
2022-12-19T22:34:31.412Z,10.50
2022-12-19T22:36:58.043Z,10.50
2022-12-19T22:39:24.756Z,10.40
2022-12-19T22:41:51.401Z,10.40
2022-12-19T22:44:23.249Z,10.40
2022-12-19T22:46:50.875Z,10.50
2022-12-19T22:49:18.177Z,10.60
2022-12-19T22:51:46.055Z,10.70
2022-12-19T22:54:13.811Z,10.60
2022-12-19T22:56:41.235Z,10.50
2022-12-19T22:59:08.651Z,10.50
2022-12-19T23:01:40.815Z,10.50
2022-12-19T23:04:09.279Z,10.40
2022-12-19T23:06:37.270Z,10.50
2022-12-19T23:09:07.703Z,10.60
2022-12-19T23:11:37.743Z,10.60
2022-12-19T23:14:06.351Z,10.50
2022-12-19T23:16:33.029Z,10.50
2022-12-19T23:18:59.765Z,10.50
2022-12-19T23:21:27.049Z,10.60
2022-12-19T23:23:55.025Z,10.60
2022-12-19T23:26:27.922Z,10.70
2022-12-19T23:29:15.329Z,10.70
2022-12-19T23:31:44.892Z,10.80
2022-12-19T23:34:12.621Z,10.80
2022-12-19T23:39:26.334Z,10.70
2022-12-19T23:41:52.943Z,10.80
2022-12-19T23:44:19.748Z,10.80
2022-12-19T23:46:46.332Z,10.70
2022-12-19T23:49:13.203Z,10.70
2022-12-19T23:51:39.811Z,10.80
2022-12-19T23:54:06.600Z,10.70
2022-12-19T23:56:33.562Z,10.90
2022-12-19T23:59:00.845Z,11.00
